sensor_id;sensor_type;location;lat;lon;timestamp;temperature;humidity
41060;DHT22;26811;53.160;8.202;2023-07-16T00:03:35;17.00;99.90
41060;DHT22;26811;53.160;8.202;2023-07-16T00:08:35;17.00;99.90
41060;DHT22;26811;53.160;8.202;2023-07-16T00:13:36;16.90;99.90
41060;DHT22;26811;53.160;8.202;2023-07-16T00:18:37;16.90;99.90
41060;DHT22;26811;53.160;8.202;2023-07-16T00:23:38;16.90;99.90
41060;DHT22;26811;53.160;8.202;2023-07-16T00:28:38;17.00;99.90
41060;DHT22;26811;53.160;8.202;2023-07-16T00:33:39;17.00;99.90
41060;DHT22;26811;53.160;8.202;2023-07-16T00:38:39;17.00;99.90
41060;DHT22;26811;53.160;8.202;2023-07-16T00:43:41;16.90;99.90
41060;DHT22;26811;53.160;8.202;2023-07-16T00:48:43;16.80;99.90
41060;DHT22;26811;53.160;8.202;2023-07-16T00:53:44;16.80;99.90
41060;DHT22;26811;53.160;8.202;2023-07-16T00:58:45;16.70;99.90
41060;DHT22;26811;53.160;8.202;2023-07-16T01:03:47;16.70;99.90
41060;DHT22;26811;53.160;8.202;2023-07-16T01:09:03;16.70;99.90
41060;DHT22;26811;53.160;8.202;2023-07-16T01:14:07;16.60;99.90
41060;DHT22;26811;53.160;8.202;2023-07-16T01:19:09;16.70;99.90
41060;DHT22;26811;53.160;8.202;2023-07-16T01:24:33;16.70;99.90
41060;DHT22;26811;53.160;8.202;2023-07-16T01:29:43;16.70;99.90
41060;DHT22;26811;53.160;8.202;2023-07-16T01:34:45;16.70;99.90
41060;DHT22;26811;53.160;8.202;2023-07-16T01:39:47;16.70;99.90
41060;DHT22;26811;53.160;8.202;2023-07-16T01:44:47;16.70;99.90
41060;DHT22;26811;53.160;8.202;2023-07-16T01:49:48;16.70;99.90
41060;DHT22;26811;53.160;8.202;2023-07-16T01:54:48;16.70;99.90
41060;DHT22;26811;53.160;8.202;2023-07-16T01:59:49;16.70;99.90
41060;DHT22;26811;53.160;8.202;2023-07-16T02:04:50;16.70;99.90
41060;DHT22;26811;53.160;8.202;2023-07-16T02:09:51;16.70;99.90
41060;DHT22;26811;53.160;8.202;2023-07-16T02:14:51;16.60;99.90
41060;DHT22;26811;53.160;8.202;2023-07-16T02:19:52;16.70;99.90
41060;DHT22;26811;53.160;8.202;2023-07-16T02:24:52;16.60;99.90
41060;DHT22;26811;53.160;8.202;2023-07-16T02:29:53;16.60;99.90
41060;DHT22;26811;53.160;8.202;2023-07-16T02:34:53;16.60;99.90
41060;DHT22;26811;53.160;8.202;2023-07-16T02:39:54;16.60;99.90
41060;DHT22;26811;53.160;8.202;2023-07-16T02:44:55;16.50;99.90
41060;DHT22;26811;53.160;8.202;2023-07-16T02:49:55;16.60;99.90
41060;DHT22;26811;53.160;8.202;2023-07-16T02:54:56;16.60;99.90
41060;DHT22;26811;53.160;8.202;2023-07-16T02:59:56;16.60;99.90
41060;DHT22;26811;53.160;8.202;2023-07-16T03:04:57;16.70;99.90
41060;DHT22;26811;53.160;8.202;2023-07-16T03:09:57;16.60;99.90
41060;DHT22;26811;53.160;8.202;2023-07-16T03:14:58;16.60;99.90
41060;DHT22;26811;53.160;8.202;2023-07-16T03:19:58;16.60;99.90
41060;DHT22;26811;53.160;8.202;2023-07-16T03:24:59;16.70;99.90
41060;DHT22;26811;53.160;8.202;2023-07-16T03:29:59;16.70;99.90
41060;DHT22;26811;53.160;8.202;2023-07-16T03:35:00;16.60;99.90
41060;DHT22;26811;53.160;8.202;2023-07-16T03:40:14;16.60;99.90
41060;DHT22;26811;53.160;8.202;2023-07-16T03:45:15;16.60;99.90
41060;DHT22;26811;53.160;8.202;2023-07-16T03:50:16;16.60;99.90
41060;DHT22;26811;53.160;8.202;2023-07-16T03:55:16;16.50;99.90
41060;DHT22;26811;53.160;8.202;2023-07-16T04:00:17;16.50;99.90
41060;DHT22;26811;53.160;8.202;2023-07-16T04:05:18;16.50;99.90
41060;DHT22;26811;53.160;8.202;2023-07-16T04:10:19;16.50;99.90
41060;DHT22;26811;53.160;8.202;2023-07-16T04:15:19;16.50;99.90
41060;DHT22;26811;53.160;8.202;2023-07-16T04:20:20;16.50;99.90
41060;DHT22;26811;53.160;8.202;2023-07-16T04:25:20;16.50;99.90
41060;DHT22;26811;53.160;8.202;2023-07-16T04:30:21;16.60;99.90
41060;DHT22;26811;53.160;8.202;2023-07-16T04:35:22;16.60;99.90
41060;DHT22;26811;53.160;8.202;2023-07-16T04:40:22;16.80;99.90
41060;DHT22;26811;53.160;8.202;2023-07-16T04:45:23;17.10;99.90
41060;DHT22;26811;53.160;8.202;2023-07-16T04:50:23;17.40;99.90
41060;DHT22;26811;53.160;8.202;2023-07-16T04:55:24;17.50;99.90
41060;DHT22;26811;53.160;8.202;2023-07-16T05:00:24;17.50;99.90
41060;DHT22;26811;53.160;8.202;2023-07-16T05:05:25;17.40;99.90
41060;DHT22;26811;53.160;8.202;2023-07-16T05:10:27;17.50;99.90
41060;DHT22;26811;53.160;8.202;2023-07-16T05:15:27;17.60;99.90
41060;DHT22;26811;53.160;8.202;2023-07-16T05:20:28;17.60;99.90
41060;DHT22;26811;53.160;8.202;2023-07-16T05:25:28;17.70;99.90
41060;DHT22;26811;53.160;8.202;2023-07-16T05:30:29;17.80;99.90
41060;DHT22;26811;53.160;8.202;2023-07-16T05:35:30;18.00;99.90
41060;DHT22;26811;53.160;8.202;2023-07-16T05:40:30;18.10;99.90
41060;DHT22;26811;53.160;8.202;2023-07-16T05:45:31;18.30;99.90
41060;DHT22;26811;53.160;8.202;2023-07-16T05:50:31;18.50;99.90
41060;DHT22;26811;53.160;8.202;2023-07-16T05:55:32;18.70;99.90
41060;DHT22;26811;53.160;8.202;2023-07-16T06:00:32;19.00;99.90
41060;DHT22;26811;53.160;8.202;2023-07-16T06:05:33;19.10;99.90
41060;DHT22;26811;53.160;8.202;2023-07-16T06:10:34;19.40;99.90
41060;DHT22;26811;53.160;8.202;2023-07-16T06:15:36;19.30;99.90
41060;DHT22;26811;53.160;8.202;2023-07-16T06:20:37;19.30;99.90
41060;DHT22;26811;53.160;8.202;2023-07-16T06:25:37;19.30;99.90
41060;DHT22;26811;53.160;8.202;2023-07-16T06:30:38;19.40;99.90
41060;DHT22;26811;53.160;8.202;2023-07-16T06:35:39;19.70;99.90
41060;DHT22;26811;53.160;8.202;2023-07-16T06:40:45;19.80;99.90
41060;DHT22;26811;53.160;8.202;2023-07-16T06:45:45;19.90;99.90
41060;DHT22;26811;53.160;8.202;2023-07-16T06:50:46;19.90;99.90
41060;DHT22;26811;53.160;8.202;2023-07-16T06:55:50;19.90;99.90
41060;DHT22;26811;53.160;8.202;2023-07-16T07:00:50;20.00;99.90
41060;DHT22;26811;53.160;8.202;2023-07-16T07:05:51;20.20;99.90
41060;DHT22;26811;53.160;8.202;2023-07-16T07:10:51;20.20;99.90
41060;DHT22;26811;53.160;8.202;2023-07-16T07:15:52;20.60;99.90
41060;DHT22;26811;53.160;8.202;2023-07-16T07:20:52;20.90;99.90
41060;DHT22;26811;53.160;8.202;2023-07-16T07:25:53;21.20;99.90
41060;DHT22;26811;53.160;8.202;2023-07-16T07:30:53;21.40;99.90
41060;DHT22;26811;53.160;8.202;2023-07-16T07:35:54;21.70;99.90
41060;DHT22;26811;53.160;8.202;2023-07-16T07:40:55;21.30;99.90
41060;DHT22;26811;53.160;8.202;2023-07-16T07:45:56;20.80;99.90
41060;DHT22;26811;53.160;8.202;2023-07-16T07:50:56;20.60;99.90
41060;DHT22;26811;53.160;8.202;2023-07-16T07:55:57;20.90;99.90
41060;DHT22;26811;53.160;8.202;2023-07-16T08:01:06;21.40;99.90
41060;DHT22;26811;53.160;8.202;2023-07-16T08:06:07;21.80;99.90
41060;DHT22;26811;53.160;8.202;2023-07-16T08:11:07;22.00;99.90
41060;DHT22;26811;53.160;8.202;2023-07-16T08:16:08;22.40;99.90
41060;DHT22;26811;53.160;8.202;2023-07-16T08:21:09;22.20;99.90
41060;DHT22;26811;53.160;8.202;2023-07-16T08:26:10;22.30;99.90
41060;DHT22;26811;53.160;8.202;2023-07-16T08:31:13;22.60;99.90
41060;DHT22;26811;53.160;8.202;2023-07-16T08:36:13;22.60;99.90
41060;DHT22;26811;53.160;8.202;2023-07-16T08:41:14;22.80;99.90
41060;DHT22;26811;53.160;8.202;2023-07-16T08:46:15;22.70;99.90
41060;DHT22;26811;53.160;8.202;2023-07-16T08:51:16;22.50;99.90
41060;DHT22;26811;53.160;8.202;2023-07-16T08:56:17;22.30;99.90
41060;DHT22;26811;53.160;8.202;2023-07-16T09:01:17;22.10;99.90
41060;DHT22;26811;53.160;8.202;2023-07-16T09:06:18;22.00;99.90
41060;DHT22;26811;53.160;8.202;2023-07-16T09:11:19;21.60;99.90
41060;DHT22;26811;53.160;8.202;2023-07-16T09:16:21;21.70;99.90
41060;DHT22;26811;53.160;8.202;2023-07-16T09:21:22;22.20;99.90
41060;DHT22;26811;53.160;8.202;2023-07-16T09:26:23;22.70;99.90
41060;DHT22;26811;53.160;8.202;2023-07-16T09:31:24;23.00;99.90
41060;DHT22;26811;53.160;8.202;2023-07-16T09:36:27;23.20;99.90
41060;DHT22;26811;53.160;8.202;2023-07-16T09:41:28;23.40;99.90
41060;DHT22;26811;53.160;8.202;2023-07-16T09:46:29;23.50;99.60
41060;DHT22;26811;53.160;8.202;2023-07-16T09:51:35;23.70;99.40
41060;DHT22;26811;53.160;8.202;2023-07-16T09:56:39;23.70;98.60
41060;DHT22;26811;53.160;8.202;2023-07-16T10:01:40;23.60;99.90
41060;DHT22;26811;53.160;8.202;2023-07-16T10:11:50;23.70;98.60
41060;DHT22;26811;53.160;8.202;2023-07-16T10:16:51;23.30;98.90
41060;DHT22;26811;53.160;8.202;2023-07-16T10:21:51;23.00;99.60
41060;DHT22;26811;53.160;8.202;2023-07-16T10:26:52;22.60;99.60
41060;DHT22;26811;53.160;8.202;2023-07-16T10:31:52;22.20;99.90
41060;DHT22;26811;53.160;8.202;2023-07-16T10:36:53;22.10;99.90
41060;DHT22;26811;53.160;8.202;2023-07-16T10:41:53;22.10;99.90
41060;DHT22;26811;53.160;8.202;2023-07-16T10:46:54;22.10;99.90
41060;DHT22;26811;53.160;8.202;2023-07-16T10:51:57;22.60;99.90
41060;DHT22;26811;53.160;8.202;2023-07-16T10:56:57;22.90;99.90
41060;DHT22;26811;53.160;8.202;2023-07-16T11:01:58;23.30;99.90
41060;DHT22;26811;53.160;8.202;2023-07-16T11:06:58;23.40;98.40
41060;DHT22;26811;53.160;8.202;2023-07-16T11:12:07;23.30;97.30
41060;DHT22;26811;53.160;8.202;2023-07-16T11:17:08;23.30;99.10
41060;DHT22;26811;53.160;8.202;2023-07-16T11:22:09;23.70;99.80
41060;DHT22;26811;53.160;8.202;2023-07-16T11:27:15;23.50;98.30
41060;DHT22;26811;53.160;8.202;2023-07-16T11:32:37;23.30;98.20
41060;DHT22;26811;53.160;8.202;2023-07-16T11:37:38;22.70;99.10
41060;DHT22;26811;53.160;8.202;2023-07-16T11:42:39;22.80;99.40
41060;DHT22;26811;53.160;8.202;2023-07-16T11:47:40;23.30;98.70
41060;DHT22;26811;53.160;8.202;2023-07-16T11:52:40;23.50;98.80
41060;DHT22;26811;53.160;8.202;2023-07-16T11:57:41;23.50;99.40
41060;DHT22;26811;53.160;8.202;2023-07-16T12:02:42;23.60;98.90
41060;DHT22;26811;53.160;8.202;2023-07-16T12:07:42;23.30;99.00
41060;DHT22;26811;53.160;8.202;2023-07-16T12:12:43;22.90;98.90
41060;DHT22;26811;53.160;8.202;2023-07-16T12:17:43;22.50;99.90
41060;DHT22;26811;53.160;8.202;2023-07-16T12:22:44;22.10;99.90
41060;DHT22;26811;53.160;8.202;2023-07-16T12:27:44;21.80;99.90
41060;DHT22;26811;53.160;8.202;2023-07-16T12:32:45;21.70;99.90
41060;DHT22;26811;53.160;8.202;2023-07-16T12:37:45;21.90;99.90
41060;DHT22;26811;53.160;8.202;2023-07-16T12:42:46;21.90;99.90
41060;DHT22;26811;53.160;8.202;2023-07-16T12:47:46;22.30;99.90
41060;DHT22;26811;53.160;8.202;2023-07-16T12:52:47;22.90;99.90
41060;DHT22;26811;53.160;8.202;2023-07-16T12:57:47;23.00;99.90
41060;DHT22;26811;53.160;8.202;2023-07-16T13:02:48;23.00;99.90
41060;DHT22;26811;53.160;8.202;2023-07-16T13:07:48;22.90;99.60
41060;DHT22;26811;53.160;8.202;2023-07-16T13:12:49;22.70;99.90
41060;DHT22;26811;53.160;8.202;2023-07-16T13:17:49;22.70;99.90
41060;DHT22;26811;53.160;8.202;2023-07-16T13:22:50;22.70;99.90
41060;DHT22;26811;53.160;8.202;2023-07-16T13:27:51;22.80;99.90
41060;DHT22;26811;53.160;8.202;2023-07-16T13:32:53;23.00;99.90
41060;DHT22;26811;53.160;8.202;2023-07-16T13:37:56;23.10;99.90
41060;DHT22;26811;53.160;8.202;2023-07-16T13:42:56;23.20;99.90
41060;DHT22;26811;53.160;8.202;2023-07-16T13:47:57;22.80;99.90
41060;DHT22;26811;53.160;8.202;2023-07-16T13:52:58;22.30;99.90
41060;DHT22;26811;53.160;8.202;2023-07-16T13:58:01;21.80;99.90
41060;DHT22;26811;53.160;8.202;2023-07-16T14:03:02;21.60;99.90
41060;DHT22;26811;53.160;8.202;2023-07-16T14:08:04;21.70;99.90
41060;DHT22;26811;53.160;8.202;2023-07-16T14:13:04;21.90;99.90
41060;DHT22;26811;53.160;8.202;2023-07-16T14:18:05;22.30;99.90
41060;DHT22;26811;53.160;8.202;2023-07-16T14:23:05;22.60;99.90
41060;DHT22;26811;53.160;8.202;2023-07-16T14:28:06;22.50;99.90
41060;DHT22;26811;53.160;8.202;2023-07-16T14:33:07;22.40;99.90
41060;DHT22;26811;53.160;8.202;2023-07-16T14:38:07;22.50;99.90
41060;DHT22;26811;53.160;8.202;2023-07-16T14:43:08;22.50;99.90
41060;DHT22;26811;53.160;8.202;2023-07-16T14:48:08;22.80;99.90
41060;DHT22;26811;53.160;8.202;2023-07-16T14:53:09;22.80;99.90
41060;DHT22;26811;53.160;8.202;2023-07-16T14:58:13;22.90;99.90
41060;DHT22;26811;53.160;8.202;2023-07-16T15:03:13;23.00;99.90
41060;DHT22;26811;53.160;8.202;2023-07-16T15:08:14;23.30;99.60
41060;DHT22;26811;53.160;8.202;2023-07-16T15:13:14;23.20;99.80
41060;DHT22;26811;53.160;8.202;2023-07-16T15:18:15;22.90;99.60
41060;DHT22;26811;53.160;8.202;2023-07-16T15:23:16;22.70;99.90
41060;DHT22;26811;53.160;8.202;2023-07-16T15:28:16;22.60;99.90
41060;DHT22;26811;53.160;8.202;2023-07-16T15:33:17;22.40;99.90
41060;DHT22;26811;53.160;8.202;2023-07-16T15:38:17;22.10;99.90
41060;DHT22;26811;53.160;8.202;2023-07-16T15:43:18;22.10;99.90
41060;DHT22;26811;53.160;8.202;2023-07-16T15:48:18;22.10;99.90
41060;DHT22;26811;53.160;8.202;2023-07-16T15:53:19;22.00;99.90
41060;DHT22;26811;53.160;8.202;2023-07-16T15:58:19;22.00;99.90
41060;DHT22;26811;53.160;8.202;2023-07-16T16:03:20;22.00;99.90
41060;DHT22;26811;53.160;8.202;2023-07-16T16:08:21;22.20;99.90
41060;DHT22;26811;53.160;8.202;2023-07-16T16:13:23;22.30;99.90
41060;DHT22;26811;53.160;8.202;2023-07-16T16:18:24;22.40;99.90
41060;DHT22;26811;53.160;8.202;2023-07-16T16:23:25;22.50;99.90
41060;DHT22;26811;53.160;8.202;2023-07-16T16:28:26;22.50;99.90
41060;DHT22;26811;53.160;8.202;2023-07-16T16:33:27;22.50;99.90
41060;DHT22;26811;53.160;8.202;2023-07-16T16:38:27;22.50;99.90
41060;DHT22;26811;53.160;8.202;2023-07-16T16:43:28;22.40;99.90
41060;DHT22;26811;53.160;8.202;2023-07-16T16:48:28;22.20;99.90
41060;DHT22;26811;53.160;8.202;2023-07-16T16:53:31;22.00;99.90
41060;DHT22;26811;53.160;8.202;2023-07-16T16:58:31;21.80;99.90
41060;DHT22;26811;53.160;8.202;2023-07-16T17:03:32;21.40;99.90
41060;DHT22;26811;53.160;8.202;2023-07-16T17:08:34;21.00;99.90
41060;DHT22;26811;53.160;8.202;2023-07-16T17:13:34;20.70;99.90
41060;DHT22;26811;53.160;8.202;2023-07-16T17:18:35;20.60;99.90
41060;DHT22;26811;53.160;8.202;2023-07-16T17:23:35;20.60;99.90
41060;DHT22;26811;53.160;8.202;2023-07-16T17:28:36;20.60;99.90
41060;DHT22;26811;53.160;8.202;2023-07-16T17:33:36;20.70;99.90
41060;DHT22;26811;53.160;8.202;2023-07-16T17:38:37;20.90;99.90
41060;DHT22;26811;53.160;8.202;2023-07-16T17:43:38;21.00;99.90
41060;DHT22;26811;53.160;8.202;2023-07-16T17:48:38;21.10;99.90
41060;DHT22;26811;53.160;8.202;2023-07-16T17:53:39;21.20;99.90
41060;DHT22;26811;53.160;8.202;2023-07-16T17:58:40;21.30;99.90
41060;DHT22;26811;53.160;8.202;2023-07-16T18:03:41;21.30;99.90
41060;DHT22;26811;53.160;8.202;2023-07-16T18:08:41;21.30;99.90
41060;DHT22;26811;53.160;8.202;2023-07-16T18:13:42;21.30;99.90
41060;DHT22;26811;53.160;8.202;2023-07-16T18:18:43;21.30;99.90
41060;DHT22;26811;53.160;8.202;2023-07-16T18:23:43;21.20;99.90
41060;DHT22;26811;53.160;8.202;2023-07-16T18:28:44;21.10;99.90
41060;DHT22;26811;53.160;8.202;2023-07-16T18:33:44;21.00;99.90
41060;DHT22;26811;53.160;8.202;2023-07-16T18:38:45;20.90;99.90
41060;DHT22;26811;53.160;8.202;2023-07-16T18:43:46;20.90;99.90
41060;DHT22;26811;53.160;8.202;2023-07-16T18:48:46;20.90;99.90
41060;DHT22;26811;53.160;8.202;2023-07-16T18:53:47;20.90;99.90
41060;DHT22;26811;53.160;8.202;2023-07-16T18:58:47;20.90;99.90
41060;DHT22;26811;53.160;8.202;2023-07-16T19:03:48;20.80;99.90
41060;DHT22;26811;53.160;8.202;2023-07-16T19:08:49;20.80;99.90
41060;DHT22;26811;53.160;8.202;2023-07-16T19:13:49;20.70;99.90
41060;DHT22;26811;53.160;8.202;2023-07-16T19:18:50;20.70;99.90
41060;DHT22;26811;53.160;8.202;2023-07-16T19:23:50;20.60;99.90
41060;DHT22;26811;53.160;8.202;2023-07-16T19:28:51;20.60;99.90
41060;DHT22;26811;53.160;8.202;2023-07-16T19:33:53;20.60;99.90
41060;DHT22;26811;53.160;8.202;2023-07-16T19:38:55;20.50;99.90
41060;DHT22;26811;53.160;8.202;2023-07-16T19:43:55;20.50;99.90
41060;DHT22;26811;53.160;8.202;2023-07-16T19:48:56;20.40;99.90
41060;DHT22;26811;53.160;8.202;2023-07-16T19:53:56;20.30;99.90
41060;DHT22;26811;53.160;8.202;2023-07-16T19:58:58;20.20;99.90
41060;DHT22;26811;53.160;8.202;2023-07-16T20:03:59;20.20;99.90
41060;DHT22;26811;53.160;8.202;2023-07-16T20:08:59;20.10;99.90
41060;DHT22;26811;53.160;8.202;2023-07-16T20:14:00;20.00;99.90
41060;DHT22;26811;53.160;8.202;2023-07-16T20:19:00;19.90;99.90
41060;DHT22;26811;53.160;8.202;2023-07-16T20:24:01;19.90;99.90
41060;DHT22;26811;53.160;8.202;2023-07-16T20:29:03;19.70;99.90
41060;DHT22;26811;53.160;8.202;2023-07-16T20:34:03;19.60;99.90
41060;DHT22;26811;53.160;8.202;2023-07-16T20:39:04;19.60;99.90
41060;DHT22;26811;53.160;8.202;2023-07-16T20:44:05;19.60;99.90
41060;DHT22;26811;53.160;8.202;2023-07-16T20:49:05;19.50;99.90
41060;DHT22;26811;53.160;8.202;2023-07-16T20:54:06;19.50;99.90
41060;DHT22;26811;53.160;8.202;2023-07-16T20:59:08;19.50;99.90
41060;DHT22;26811;53.160;8.202;2023-07-16T21:04:09;19.40;99.90
41060;DHT22;26811;53.160;8.202;2023-07-16T21:09:09;19.30;99.90
41060;DHT22;26811;53.160;8.202;2023-07-16T21:14:10;19.30;99.90
41060;DHT22;26811;53.160;8.202;2023-07-16T21:19:10;19.30;99.90
41060;DHT22;26811;53.160;8.202;2023-07-16T21:24:11;19.20;99.90
41060;DHT22;26811;53.160;8.202;2023-07-16T21:29:11;19.20;99.90
41060;DHT22;26811;53.160;8.202;2023-07-16T21:34:12;19.20;99.90
41060;DHT22;26811;53.160;8.202;2023-07-16T21:39:12;19.10;99.90
41060;DHT22;26811;53.160;8.202;2023-07-16T21:44:13;19.10;99.90
41060;DHT22;26811;53.160;8.202;2023-07-16T21:49:13;19.10;99.90
41060;DHT22;26811;53.160;8.202;2023-07-16T21:54:14;19.00;99.90
41060;DHT22;26811;53.160;8.202;2023-07-16T21:59:14;19.00;99.90
41060;DHT22;26811;53.160;8.202;2023-07-16T22:04:15;18.90;99.90
41060;DHT22;26811;53.160;8.202;2023-07-16T22:09:16;18.90;99.90
41060;DHT22;26811;53.160;8.202;2023-07-16T22:14:16;18.80;99.90
41060;DHT22;26811;53.160;8.202;2023-07-16T22:19:18;18.80;99.90
41060;DHT22;26811;53.160;8.202;2023-07-16T22:24:18;18.80;99.90
41060;DHT22;26811;53.160;8.202;2023-07-16T22:29:19;18.80;99.90
41060;DHT22;26811;53.160;8.202;2023-07-16T22:34:19;18.70;99.90
41060;DHT22;26811;53.160;8.202;2023-07-16T22:39:20;18.70;99.90
41060;DHT22;26811;53.160;8.202;2023-07-16T22:44:20;18.70;99.90
41060;DHT22;26811;53.160;8.202;2023-07-16T22:49:21;18.70;99.90
41060;DHT22;26811;53.160;8.202;2023-07-16T22:54:21;18.70;99.90
41060;DHT22;26811;53.160;8.202;2023-07-16T22:59:22;18.70;99.90
41060;DHT22;26811;53.160;8.202;2023-07-16T23:04:23;18.70;99.90
41060;DHT22;26811;53.160;8.202;2023-07-16T23:09:23;18.60;99.90
41060;DHT22;26811;53.160;8.202;2023-07-16T23:14:24;18.60;99.90
41060;DHT22;26811;53.160;8.202;2023-07-16T23:19:25;18.50;99.90
41060;DHT22;26811;53.160;8.202;2023-07-16T23:24:25;18.50;99.90
41060;DHT22;26811;53.160;8.202;2023-07-16T23:29:26;18.40;99.90
41060;DHT22;26811;53.160;8.202;2023-07-16T23:34:27;18.40;99.90
41060;DHT22;26811;53.160;8.202;2023-07-16T23:39:28;18.40;99.90
41060;DHT22;26811;53.160;8.202;2023-07-16T23:44:29;18.40;99.90
41060;DHT22;26811;53.160;8.202;2023-07-16T23:49:30;18.30;99.90
41060;DHT22;26811;53.160;8.202;2023-07-16T23:54:30;18.30;99.90
41060;DHT22;26811;53.160;8.202;2023-07-16T23:59:31;18.40;99.90
